Twenthe, Netherlands
Current Conditions -  °F | °C
As of 1:20 AM on Tuesday 25 Nov 2014 (Local Time) from EDDG Reporting Station
Light Fog Light Fog  
Wind Chill: 32°   Ceiling: Unl
Heat Index: 32°   Visibility: 3mi
Dew Point: 32°   Wind: 0mph
Humidity: 100%   Direction: NA
Pressure: 30.33"   Gusts: NA
Location:  52.27°N, 6.9°E
Report Text: EDDG 250020Z 00000KT 5000 1000NE R25/0600V1600U BCFG MIFG BR NSC 00/00 Q1027 TEMPO 0700 FG
Loading
Personal Weather Stations






























Interactive Weather Map New forecast layout! Learn more

10-Day Weather Forecast

Advertisements
Track Severe Weather on mobile